Current Metar reports for airports in our Region

Nearby METAR Reports

Metar reports are mainly used by pilots for information on what is happening at their destination during their pre-flight weather briefings and by meteorologists to assist in short term forecasts. A raw Metar is one of the most universal ways to communicate weather information in the world and are usually transmitted by airports, but some come from permanent sanctioned weather observatories.

Listed below are Metars from airports within 100 miles of our station here in Smethport Pa. The first one of course is the Bradford Regional Airport, then the Olean NY airport and so on. Each airport has it's own table to display it's data and at the bottom of the table is 'Raw' Metar for each airport. Most pilots and weather forecasters can look at the raw data and tell you what is up, but we use a script that handles all of the details for us.

KBFD - Bradford, Pennsylvania, USA
Distance from station: NW 7mi, 11km
Updated: Tue, 16-Oct-2018 2:53pm EDT
Clear
Clear
 Wind from W
Wind: W 10 mph , 17 km/h, Gust: 18 mph , 30 km/h
Temperature: 48°F , 9°C
Wind Chill: 44°F , 7°C
Dew Point: 30°F , -1°C
Humidity: 50%
Barometer: 30.05 inHg , 1017.6 hPa
Clouds: Clear
Visibility: 10 miles , 16 km
2018/10/16 18:53 KBFD 161853Z AUTO 26009G16KT 10SM CLR 09/M01 A3005 RMK AO2 SLP186 T00891011
KOLE - Olean, New York, USA
Distance from station: NNE 37mi, 59km
Updated: Tue, 16-Oct-2018 2:55pm EDT
Mostly Cloudy
Mostly Cloudy
 Wind from W
Wind: W 12 mph , 19 km/h, Gust: 20 mph , 31 km/h
Temperature: 45°F , 7°C
Wind Chill: 39°F , 4°C
Dew Point: 32°F , 0°C
Humidity: 61%
Barometer: 30.04 inHg , 1017.3 hPa
Clouds: Mostly Cloudy
Visibility: 10 miles , 16 km
Cloud details: Partly Cloudy 3300 ft
Mostly Cloudy 3800 ft
Mostly Cloudy 4600 ft
2018/10/16 18:55 KOLE 161855Z AUTO 26010G17KT 220V280 10SM SCT033 BKN038 BKN046 07/00 A3004 RMK AO2
 
KELZ - Wellsville, New York, USA
Distance from station: NE 40mi, 64km
Updated: Tue, 16-Oct-2018 2:56pm EDT
Few Clouds
Few Clouds
 Wind from WSW
Wind: WSW 12 mph , 19 km/h, Gust: 21 mph , 33 km/h
Temperature: 50°F , 10°C
Wind Chill: 45°F , 7°C
Dew Point: 34°F , 1°C
Humidity: 54%
Barometer: 30.04 inHg , 1017.3 hPa
Clouds: Few Clouds
Visibility: 10 miles , 16 km
Cloud details: Few Clouds 4100 ft
2018/10/16 18:56 KELZ 161856Z AUTO 24010G18KT 210V270 10SM FEW041 10/01 A3004 RMK AO2 SLP186 T01000006
KDUJ - Du Bois, Pennsylvania, USA
Distance from station: SSW 42mi, 68km
Updated: Tue, 16-Oct-2018 2:53pm EDT
Clear
Clear
 Wind from WSW
Wind: WSW 13 mph , 20 km/h
Temperature: 46°F , 8°C
Wind Chill: 40°F , 4°C
Dew Point: 30°F , -1°C
Humidity: 53%
Barometer: 30.08 inHg , 1018.6 hPa
Clouds: Clear
Visibility: 10 miles , 16 km
2018/10/16 18:53 KDUJ 161853Z AUTO 24011KT 10SM CLR 08/M01 A3008 RMK AO2 SLP193 T00831006
 
KJHW - Jamestown, New York, USA
Distance from station: NW 46mi, 75km
Updated: Tue, 16-Oct-2018 2:56pm EDT
Clear
Clear
 Wind from SW
Wind: SW 13 mph , 20 km/h, Gust: 22 mph , 35 km/h
Temperature: 46°F , 8°C
Wind Chill: 40°F , 4°C
Dew Point: 30°F , -1°C
Humidity: 53%
Barometer: 30.05 inHg , 1017.6 hPa
Clouds: Clear
Visibility: 10 miles , 16 km
2018/10/16 18:56 KJHW 161856Z AUTO 22011G19KT 10SM CLR 08/M01 A3005 RMK AO2 SLP192 T00831006
KFIG - Clearfield, Pennsylvania, USA
Distance from station: S 47mi, 75km
Updated: Tue, 16-Oct-2018 2:54pm EDT
Clear
Clear
 Wind from WSW
Wind: WSW 13 mph , 20 km/h, Gust: 21 mph , 33 km/h
Temperature: 50°F , 10°C
Wind Chill: 45°F , 7°C
Dew Point: 30°F , -1°C
Humidity: 47%
Barometer: 30.10 inHg , 1019.3 hPa
Clouds: Clear
Visibility: 10 miles , 16 km
2018/10/16 18:54 KFIG 161854Z AUTO 24011G18KT 210V270 10SM CLR 10/M01 A3010 RMK AO2 SLP198 T01001006
 
KDKK - Dunkirk, New York, USA
Distance from station: NW 66mi, 106km
Updated: Tue, 16-Oct-2018 2:53pm EDT
Overcast
Overcast
 Wind from SW
Wind: SW 12 mph , 19 km/h, Gust: 22 mph , 35 km/h
Temperature: 52°F , 11°C
Dew Point: 37°F , 3°C
Humidity: 58%
Barometer: 30.05 inHg , 1017.6 hPa
Clouds: Overcast
Visibility: 10 miles , 16 km
Cloud details: Mostly Cloudy 4300 ft
Overcast 4900 ft
2018/10/16 18:53 KDKK 161853Z AUTO 23010G19KT 10SM BKN043 OVC049 11/03 A3005 RMK AO2 PK WND 21027/1817 SLP180 T01060028
KUNV - State College, Pennsylvania, USA
Distance from station: SSE 71mi, 114km
Updated: Tue, 16-Oct-2018 2:53pm EDT
Clear
Clear
 Wind from WSW
Wind: WSW 14 mph , 22 km/h, Gust: 20 mph , 31 km/h
Temperature: 52°F , 11°C
Dew Point: 32°F , 0°C
Humidity: 47%
Barometer: 30.10 inHg , 1019.3 hPa
Clouds: Clear
Visibility: 10 miles , 16 km
2018/10/16 18:53 KUNV 161853Z 25012G17KT 10SM SKC 11/00 A3010
 
KFKL - Franklin, Pennsylvania, USA
Distance from station: WSW 72mi, 116km
Updated: Tue, 16-Oct-2018 2:56pm EDT
Clear
Clear
 Wind from SSW
Wind: SSW 15 mph , 24 km/h, Gust: 18 mph , 30 km/h
Temperature: 48°F , 9°C
Wind Chill: 42°F , 6°C
Dew Point: 30°F , -1°C
Humidity: 50%
Barometer: 30.09 inHg , 1019 hPa
Clouds: Clear
Visibility: 10 miles , 16 km
2018/10/16 18:56 KFKL 161856Z AUTO 21013G16KT 10SM CLR 09/M01 A3009 RMK AO2 SLP199 T00941011
KDSV - Dansville, New York, USA
Distance from station: NE 73mi, 117km
Updated: Tue, 16-Oct-2018 2:54pm EDT
Overcast
Overcast
 Wind from calm
Wind: Calm
Temperature: 52°F , 11°C
Dew Point: 34°F , 1°C
Humidity: 50%
Barometer: 30.06 inHg , 1017.9 hPa
Clouds: Overcast
Visibility: 10 miles , 16 km
Cloud details: Mostly Cloudy 4700 ft
Overcast 5500 ft
2018/10/16 18:54 KDSV 161854Z AUTO 00000KT 10SM BKN047 OVC055 11/01 A3006 RMK AO2 SLP191 T01060006
 
KIDI - Indiana/Stewart, Pennsylvania, USA
Distance from station: SSW 81mi, 130km
Updated: Tue, 16-Oct-2018 2:55pm EDT
Clear
Clear
 Wind from W
Wind: W 9 mph , 15 km/h, Gust: 18 mph , 30 km/h
Temperature: 50°F , 10°C
Wind Chill: 46°F , 8°C
Dew Point: 32°F , 0°C
Humidity: 50%
Barometer: 30.15 inHg , 1021 hPa
Clouds: Clear
Visibility: 10 miles , 16 km
2018/10/16 18:55 KIDI 161855Z AUTO 27008G16KT 10SM CLR 10/00 A3015 RMK A01
KBUF - Buffalo/Cheektow, New York, USA
Distance from station: N 84mi, 136km
Updated: Tue, 16-Oct-2018 2:54pm EDT
Mostly Cloudy
Mostly Cloudy
 Wind from SSW
Wind: SSW 16 mph , 26 km/h, Gust: 24 mph , 39 km/h
Temperature: 48°F , 9°C
Wind Chill: 42°F , 6°C
Dew Point: 37°F , 3°C
Humidity: 66%
Barometer: 30.02 inHg , 1016.6 hPa
Clouds: Mostly Cloudy
Visibility: 10 miles , 16 km
Cloud details: Mostly Cloudy 2600 ft
Mostly Cloudy 3400 ft
Mostly Cloudy 11000 ft
Mostly Cloudy 22000 ft
2018/10/16 18:54 KBUF 161854Z 20014G21KT 10SM BKN026 BKN034 BKN110 BKN220 09/03 A3002 RMK AO2 SLP170 T00890033
 
KGKJ - Meadville, Pennsylvania, USA
Distance from station: W 86mi, 138km
Updated: Tue, 16-Oct-2018 2:53pm EDT
Clear
Clear
 Wind from WSW
Wind: WSW 12 mph , 19 km/h
Temperature: 50°F , 10°C
Wind Chill: 45°F , 7°C
Dew Point: 34°F , 1°C
Humidity: 54%
Barometer: 30.08 inHg , 1018.6 hPa
Clouds: Clear
Visibility: 10 miles , 16 km
2018/10/16 18:53 KGKJ 161853Z AUTO 24010KT 10SM CLR 10/01 A3008 RMK AO2 SLP193 T01000006
KERI - Erie, Pennsylvania, USA
Distance from station: WNW 87mi, 140km
Updated: Tue, 16-Oct-2018 2:51pm EDT
Clear
Clear
 Wind from SW
Wind: SW 14 mph , 22 km/h, Gust: 21 mph , 33 km/h
Temperature: 54°F , 12°C
Dew Point: 32°F , 0°C
Humidity: 44%
Barometer: 30.08 inHg , 1018.6 hPa
Clouds: Clear
Visibility: 10 miles , 16 km
2018/10/16 18:51 KERI 161851Z AUTO 23012G18KT 10SM CLR 12/00 A3008 RMK AO2 SLP187 T01220000
 
KELM - Elmira, New York, USA
Distance from station: ENE 90mi, 145km
Updated: Tue, 16-Oct-2018 2:53pm EDT
Partly Cloudy
Partly Cloudy
 Wind from WSW
Wind: WSW 12 mph , 19 km/h, Gust: 21 mph , 33 km/h
Temperature: 54°F , 12°C
Dew Point: 34°F , 1°C
Humidity: 47%
Barometer: 30.06 inHg , 1017.9 hPa
Clouds: Partly Cloudy
Visibility: 10 miles , 16 km
Cloud details: Partly Cloudy 5000 ft
2018/10/16 18:53 KELM 161853Z 25010G18KT 10SM SCT050 12/01 A3006 RMK AO2 SLP184 T01170006
KIPT - Williamsport, Pennsylvania, USA
Distance from station: ESE 91mi, 146km
Updated: Tue, 16-Oct-2018 2:54pm EDT
Clear
Clear
 Wind from W
Wind: W 8 mph , 13 km/h
Temperature: 55°F , 13°C
Dew Point: 32°F , 0°C
Humidity: 41%
Barometer: 30.08 inHg , 1018.6 hPa
Clouds: Clear
Visibility: 10 miles , 16 km
2018/10/16 18:54 KIPT 161854Z AUTO 26007KT 230V300 10SM CLR 13/00 A3008 RMK AO2 SLP188 T01280000
 
KBTP - Butler Co., Pennsylvania, USA
Distance from station: SW 98mi, 157km
Updated: Tue, 16-Oct-2018 2:56pm EDT
Clear
Clear
 Wind from SSW
Wind: SSW 12 mph , 19 km/h
Temperature: 50°F , 10°C
Wind Chill: 45°F , 7°C
Dew Point: 34°F , 1°C
Humidity: 54%
Barometer: 30.12 inHg , 1020 hPa
Clouds: Clear
Visibility: 10 miles , 16 km
2018/10/16 18:56 KBTP 161856Z AUTO 21010KT 10SM CLR 10/01 A3012 RMK AO2 SLP213 T01000006
KAOO - Altoona, Pennsylvania, USA
Distance from station: S 99mi, 159km
Updated: Tue, 16-Oct-2018 2:53pm EDT
Clear
Clear
 Wind from WSW
Wind: WSW 7 mph , 11 km/h
Temperature: 54°F , 12°C
Dew Point: 36°F , 2°C
Humidity: 51%
Barometer: 30.11 inHg , 1019.6 hPa
Clouds: Clear
Visibility: 10 miles , 16 km
2018/10/16 18:53 KAOO 161853Z AUTO 24006KT 10SM CLR 12/02 A3011 RMK AO2 SLP199 T01170022
 
KPIT - Pittsburg, Pennsylvania, USA
Distance from station: SSW 126mi, 203km
Updated: Tue, 16-Oct-2018 2:51pm EDT
Mostly Cloudy
Mostly Cloudy
 Wind from SW
Wind: SW 6 mph , 9 km/h
Temperature: 48°F , 9°C
Wind Chill: 45°F , 7°C
Dew Point: 30°F , -1°C
Humidity: 50%
Barometer: 30.13 inHg , 1020.3 hPa
Clouds: Mostly Cloudy
Visibility: 10 miles , 16 km
Cloud details: Mostly Cloudy 25000 ft
2018/10/16 18:51 KPIT 161851Z 23005KT 10SM BKN250 09/M01 A3013 RMK AO2 SLP216 T00941006
KCLE - Cleveland, Ohio, USA
Distance from station: WSW 160mi, 258km
Updated: Tue, 16-Oct-2018 2:51pm EDT
Partly Cloudy
Partly Cloudy
 Wind from WSW
Wind: WSW 15 mph , 24 km/h
Temperature: 55°F , 13°C
Dew Point: 28°F , -2°C
Humidity: 36%
Barometer: 30.11 inHg , 1019.6 hPa
Clouds: Partly Cloudy
Visibility: 10 miles , 16 km
Cloud details: Partly Cloudy 25000 ft
2018/10/16 18:51 KCLE 161851Z 25013KT 10SM SCT250 13/M02 A3011 RMK AO2 SLP198 T01331017